Main page
METAR-TAF:

METAR-TAF

Airports :

Sylt Airport

Westerland, Germany

latitude: 54-55N, longitude: 008-21E, elevation: 16 m

Current weather observation

The report was made 33 minutes ago, at 10:20 UTC
Wind 11 kt from the West, varying between West/Southwest and West/Northwest
Temperature 17°C
Humidity 82%
Pressure 1018 hPa
Visibility 10 km or more
Few clouds at a height of 1200 ft
Broken clouds at a height of 2300 ft

METAR: EDXW 231020Z 28011KT 240V300 9999 FEW012 BKN023 17/14 Q1018

Time: 12:53 (10:53 UTC)

Forecast

The report was made 2 hours and 33 minutes ago, at 08:20 UTC
Forecast valid from 23 at 09 UTC to 23 at 18 UTC
Wind 11 kt from the West/Northwest
Visibility 10 km or more
Scattered clouds at a height of 2500 ft

TAF: EDXW 230820Z 2309/2318 29011KT 9999 SCT025

Weather observations and forecasts of more than 4000 airports (METAR and TAF reports).

The available stations are represented by yellow and red dots on the map.

Hover mouse over dot to see the name of the station.

Then click to see weather observations and forecasts.

To change the map : click on the green buttons with a black cross to zoom in, on the green button with a dash to zoom out, or on the green arrows for adjacent maps.


METAR-TAF: